KMHR/MHR METAR and TAF weather

Enter ICAO airport designator
Station Type Date Time Source
KMHR METAR 2022/12/04 10:50 UTC NOAA

KMHR 041050Z AUTO 00000KT 6SM BR OVC003 07/07 A3000 RMK A01


Station Type Date Time Source
KMHR Decoded METAR 2022/12/04 10:50 UTC NOAA

Sacramento, Sacramento Mather Airport, CA, United States (KMHR) 38-33N 121-18W
Dec 04, 2022 - 05:50 AM EST / 2022.12.04 1050 UTC
Wind: Calm:0
Visibility: 6 mile(s):0
Sky conditions: overcast
Weather: mist
Temperature: 44 F (7 C)
Dew Point: 44 F (7 C)
Relative Humidity: 100%
Pressure (altimeter): 30 in. Hg (1015 hPa)
ob: KMHR 041050Z AUTO 00000KT 6SM BR OVC003 07/07 A3000 RMK A01
cycle: 11

Station Type Date Time Source
KMHR TAF 2022/12/04 06:39 UTC NOAA

TAF KMHR 040536Z 0406/0506 VRB04KT 4SM -RA BR BKN005 OVC015
FM040700 VRB06KT 4SM BR SCT005 BKN008 OVC015
FM041100 VRB06KT 3SM -RA BR BKN004 OVC006
FM041600 16008KT 6SM BR VCSH SCT005 BKN008 OVC015 PROB30 0421/0424 -RA BKN006 OVC015

Example: see airport list